Station Historical Data
Daily Summary for July 10, 2017 Units:  English    Metric   Both
« Previous Day
Next Day »
Daily Weekly Monthly Yearly Custom
  High: Low: Average:
Temperature: 79.3 °F 65.8 °F 71.2 °F
Dew Point: 66.0 °F 54.7 °F 60.2 °F
Humidity: 92% 48% 70%
Wind Speed: 12.0mph 0.0mph 3.3mph
Wind Gust: 18.0mph - -
Wind- - SW
Pressure: 29.97 in 29.87 in -
Precipitation: 0.00 in    
Historical Graphs
 
 
Tabular Data for July 10, 2017
Time Temperature Dew Point Pressure Wind Wind Speed Wind Gust Humidity Rainfall Rate (Hourly)
00:04 70.1 °F 59.9 °F 29.97 in SW 3.0 mph 7.0 mph 70% 0.00 in
00:09 69.8 °F 59.6 °F 29.97 in South 5.0 mph 6.0 mph 70% 0.00 in
00:14 69.5 °F 59.3 °F 29.97 in SW 3.0 mph 8.0 mph 70% 0.00 in
00:19 69.4 °F 59.2 °F 29.97 in SW 4.0 mph 8.0 mph 70% 0.00 in
00:24 69.2 °F 59.0 °F 29.96 in SSW 3.0 mph 7.0 mph 70% 0.00 in
00:30 68.9 °F 58.7 °F 29.96 in SW 3.0 mph 7.0 mph 70% 0.00 in
00:34 68.7 °F 58.9 °F 29.96 in SW 3.0 mph 7.0 mph 71% 0.00 in
00:39 68.6 °F 58.4 °F 29.96 in SW 4.0 mph 5.0 mph 70% 0.00 in
00:44 68.6 °F 58.4 °F 29.96 in SSW 3.0 mph 8.0 mph 70% 0.00 in
00:49 68.5 °F 58.3 °F 29.96 in SSW 3.0 mph 8.0 mph 70% 0.00 in
00:54 68.3 °F 58.1 °F 29.96 in SW 3.0 mph 5.0 mph 70% 0.00 in
00:59 68.1 °F 57.9 °F 29.96 in SSW 3.0 mph 6.0 mph 70% 0.00 in
01:04 68.1 °F 57.9 °F 29.95 in SSW 4.0 mph 7.0 mph 70% 0.00 in
01:09 68.3 °F 57.7 °F 29.95 in SW 4.0 mph 8.0 mph 69% 0.00 in
01:14 68.3 °F 57.7 °F 29.95 in WSW 5.0 mph 7.0 mph 69% 0.00 in
01:19 68.3 °F 57.3 °F 29.95 in SW 3.0 mph 7.0 mph 68% 0.00 in
01:24 68.3 °F 57.3 °F 29.95 in SW 4.0 mph 8.0 mph 68% 0.00 in
01:29 68.4 °F 57.0 °F 29.95 in SW 4.0 mph 8.0 mph 67% 0.00 in
01:34 68.4 °F 57.0 °F 29.95 in WSW 4.0 mph 5.0 mph 67% 0.00 in
01:39 68.2 °F 56.8 °F 29.95 in SW 1.0 mph 7.0 mph 67% 0.00 in
01:44 68.0 °F 56.6 °F 29.95 in SW 2.0 mph 7.0 mph 67% 0.00 in
01:49 67.8 °F 56.4 °F 29.95 in SSW 2.0 mph 5.0 mph 67% 0.00 in
01:54 67.6 °F 56.2 °F 29.95 in SSW 2.0 mph 4.0 mph 67% 0.00 in
01:59 67.3 °F 56.4 °F 29.95 in Calm   4.0 mph 68% 0.00 in
02:04 66.8 °F 56.3 °F 29.95 in Calm   2.0 mph 69% 0.00 in
02:09 66.4 °F 56.3 °F 29.95 in Calm   4.0 mph 70% 0.00 in
02:14 66.3 °F 56.2 °F 29.95 in SSW 1.0 mph 4.0 mph 70% 0.00 in
02:19 66.3 °F 56.2 °F 29.95 in SSW 1.0 mph 5.0 mph 70% 0.00 in
02:24 66.4 °F 56.3 °F 29.95 in SW 1.0 mph 5.0 mph 70% 0.00 in
02:29 66.7 °F 55.8 °F 29.95 in SW 1.0 mph 4.0 mph 68% 0.00 in
02:34 66.9 °F 56.0 °F 29.95 in SW 2.0 mph 5.0 mph 68% 0.00 in
02:39 67.0 °F 56.1 °F 29.95 in SSW 2.0 mph 5.0 mph 68% 0.00 in
02:44 67.0 °F 56.1 °F 29.95 in SSW 1.0 mph 4.0 mph 68% 0.00 in
02:49 67.0 °F 55.7 °F 29.95 in SSW 1.0 mph 5.0 mph 67% 0.00 in
02:54 67.1 °F 55.8 °F 29.94 in SW 2.0 mph 5.0 mph 67% 0.00 in
02:59 67.2 °F 55.9 °F 29.94 in SW 3.0 mph 6.0 mph 67% 0.00 in
03:04 67.2 °F 55.9 °F 29.94 in SW 2.0 mph 7.0 mph 67% 0.00 in
03:09 67.2 °F 55.9 °F 29.94 in SW 1.0 mph 5.0 mph 67% 0.00 in
03:14 67.2 °F 55.5 °F 29.94 in SW 3.0 mph 6.0 mph 66% 0.00 in
03:19 67.3 °F 55.5 °F 29.94 in SW 3.0 mph 9.0 mph 66% 0.00 in
03:24 67.3 °F 55.5 °F 29.94 in SW 4.0 mph 5.0 mph 66% 0.00 in
03:29 67.3 °F 55.1 °F 29.94 in SW 4.0 mph 7.0 mph 65% 0.00 in
03:34 67.3 °F 55.1 °F 29.94 in SW 4.0 mph 5.0 mph 65% 0.00 in
03:39 67.4 °F 55.2 °F 29.93 in SW 2.0 mph 5.0 mph 65% 0.00 in
03:44 67.5 °F 55.3 °F 29.93 in SW 2.0 mph 8.0 mph 65% 0.00 in
03:49 67.6 °F 55.0 °F 29.93 in SW 3.0 mph 8.0 mph 64% 0.00 in
03:54 67.7 °F 55.1 °F 29.93 in SW 3.0 mph 7.0 mph 64% 0.00 in
03:59 68.0 °F 55.4 °F 29.93 in SW 3.0 mph 7.0 mph 64% 0.00 in
04:04 68.3 °F 55.2 °F 29.93 in WSW 4.0 mph 4.0 mph 63% 0.00 in
04:09 68.4 °F 55.3 °F 29.93 in SW 2.0 mph 6.0 mph 63% 0.00 in
04:14 68.5 °F 55.4 °F 29.93 in WSW 1.0 mph 4.0 mph 63% 0.00 in
04:19 68.5 °F 55.4 °F 29.93 in Calm   6.0 mph 63% 0.00 in
04:24 68.6 °F 55.5 °F 29.93 in WSW 1.0 mph 4.0 mph 63% 0.00 in
04:29 68.6 °F 55.5 °F 29.93 in WSW 4.0 mph 5.0 mph 63% 0.00 in
04:34 68.7 °F 55.2 °F 29.93 in SW 1.0 mph 5.0 mph 62% 0.00 in
04:39 68.7 °F 55.6 °F 29.93 in SW 1.0 mph 5.0 mph 63% 0.00 in
04:44 68.4 °F 55.3 °F 29.93 in SW 1.0 mph 5.0 mph 63% 0.00 in
04:49 68.3 °F 55.2 °F 29.93 in SW 1.0 mph 4.0 mph 63% 0.00 in
04:54 68.1 °F 55.5 °F 29.93 in SW 1.0 mph 5.0 mph 64% 0.00 in
04:59 67.9 °F 55.3 °F 29.93 in SW 2.0 mph 5.0 mph 64% 0.00 in
05:04 67.9 °F 55.3 °F 29.94 in SW 1.0 mph 5.0 mph 64% 0.00 in
05:09 68.0 °F 55.8 °F 29.94 in SW 5.0 mph 5.0 mph 65% 0.00 in
05:14 68.1 °F 55.5 °F 29.94 in SSW 1.0 mph 5.0 mph 64% 0.00 in
05:19 68.1 °F 55.5 °F 29.94 in SW 3.0 mph 5.0 mph 64% 0.00 in
05:24 68.1 °F 55.9 °F 29.94 in SW 5.0 mph 5.0 mph 65% 0.00 in
05:29 68.1 °F 55.9 °F 29.94 in SW 1.0 mph 6.0 mph 65% 0.00 in
05:34 68.1 °F 55.9 °F 29.93 in SSW 1.0 mph 5.0 mph 65% 0.00 in
05:39 68.0 °F 55.4 °F 29.93 in SSW 1.0 mph 5.0 mph 64% 0.00 in
05:44 68.0 °F 55.8 °F 29.93 in SW 1.0 mph 5.0 mph 65% 0.00 in
05:49 67.6 °F 55.4 °F 29.93 in SW 1.0 mph 5.0 mph 65% 0.00 in
05:54 67.3 °F 55.1 °F 29.93 in SW 1.0 mph 4.0 mph 65% 0.00 in
05:59 67.0 °F 54.8 °F 29.93 in SW 1.0 mph 4.0 mph 65% 0.00 in
06:04 66.5 °F 54.8 °F 29.93 in Calm   2.0 mph 66% 0.00 in
06:09 66.0 °F 54.7 °F 29.94 in SW 1.0 mph 2.0 mph 67% 0.00 in
06:14 65.8 °F 54.9 °F 29.93 in SSW 2.0 mph 7.0 mph 68% 0.00 in
06:19 65.9 °F 55.0 °F 29.93 in Calm   5.0 mph 68% 0.00 in
06:24 65.8 °F 54.9 °F 29.92 in Calm   7.0 mph 68% 0.00 in
06:29 66.0 °F 55.1 °F 29.93 in SW 3.0 mph 4.0 mph 68% 0.00 in
06:34 66.5 °F 55.6 °F 29.93 in SW 1.0 mph 4.0 mph 68% 0.00 in
06:39 66.7 °F 55.4 °F 29.93 in SSW 1.0 mph 5.0 mph 67% 0.00 in
06:44 67.3 °F 56.0 °F 29.93 in SSW 2.0 mph 5.0 mph 67% 0.00 in
06:49 67.9 °F 55.7 °F 29.93 in SSW 3.0 mph 6.0 mph 65% 0.00 in
06:54 68.4 °F 56.2 °F 29.93 in SSW 3.0 mph 7.0 mph 65% 0.00 in
06:59 68.5 °F 55.8 °F 29.93 in SSW 3.0 mph 7.0 mph 64% 0.00 in
07:04 68.8 °F 55.7 °F 29.93 in SW 1.0 mph 7.0 mph 63% 0.00 in
07:09 68.9 °F 55.8 °F 29.93 in SSW 3.0 mph 7.0 mph 63% 0.00 in
07:14 69.0 °F 55.4 °F 29.93 in SSW 4.0 mph 8.0 mph 62% 0.00 in
07:19 69.3 °F 56.2 °F 29.93 in SW 3.0 mph 5.0 mph 63% 0.00 in
07:24 69.7 °F 55.6 °F 29.93 in SSE 4.0 mph 9.0 mph 61% 0.00 in
07:29 70.0 °F 55.9 °F 29.94 in SSW 5.0 mph 8.0 mph 61% 0.00 in
07:34 70.4 °F 55.8 °F 29.94 in SW 1.0 mph 7.0 mph 60% 0.00 in
07:39 70.8 °F 55.3 °F 29.94 in SW 4.0 mph 9.0 mph 58% 0.00 in
07:44 71.2 °F 56.1 °F 29.94 in SW 4.0 mph 10.0 mph 59% 0.00 in
07:49 71.5 °F 55.9 °F 29.94 in SW 5.0 mph 10.0 mph 58% 0.00 in
07:54 71.7 °F 56.1 °F 29.94 in SW 5.0 mph 14.0 mph 58% 0.00 in
07:59 72.1 °F 55.5 °F 29.94 in WSW 5.0 mph 9.0 mph 56% 0.00 in
08:04 72.2 °F 56.1 °F 29.94 in SW 3.0 mph 9.0 mph 57% 0.00 in
08:09 72.6 °F 56.0 °F 29.94 in SW 4.0 mph 10.0 mph 56% 0.00 in
08:14 72.9 °F 56.3 °F 29.94 in SW 5.0 mph 10.0 mph 56% 0.00 in
08:19 73.1 °F 55.5 °F 29.94 in SW 5.0 mph 12.0 mph 54% 0.00 in
08:24 73.2 °F 56.1 °F 29.94 in SSW 3.0 mph 11.0 mph 55% 0.00 in
08:29 73.4 °F 56.2 °F 29.94 in SW 7.0 mph 8.0 mph 55% 0.00 in
08:34 73.4 °F 56.2 °F 29.93 in WSW 4.0 mph 15.0 mph 55% 0.00 in
08:39 73.5 °F 56.8 °F 29.94 in SW 5.0 mph 15.0 mph 56% 0.00 in
08:44 72.9 °F 55.8 °F 29.94 in SW 6.0 mph 14.0 mph 55% 0.00 in
08:49 72.4 °F 56.3 °F 29.94 in SW 9.0 mph 12.0 mph 57% 0.00 in
08:54 72.3 °F 56.7 °F 29.94 in SSW 7.0 mph 10.0 mph 58% 0.00 in
08:59 72.8 °F 56.7 °F 29.94 in WSW 6.0 mph 9.0 mph 57% 0.00 in
09:04 73.1 °F 57.4 °F 29.94 in SW 9.0 mph 10.0 mph 58% 0.00 in
09:09 73.1 °F 56.5 °F 29.94 in SW 6.0 mph 12.0 mph 56% 0.00 in
09:14 74.0 °F 56.8 °F 29.94 in SW 6.0 mph 12.0 mph 55% 0.00 in
09:19 73.9 °F 56.2 °F 29.94 in SW 6.0 mph 13.0 mph 54% 0.00 in
09:24 73.5 °F 56.3 °F 29.93 in SW 6.0 mph 13.0 mph 55% 0.00 in
09:29 73.3 °F 55.6 °F 29.93 in SW 6.0 mph 12.0 mph 54% 0.00 in
09:34 73.3 °F 56.2 °F 29.94 in SW 5.0 mph 10.0 mph 55% 0.00 in
09:39 73.8 °F 56.1 °F 29.94 in SW 8.0 mph 13.0 mph 54% 0.00 in
09:44 74.3 °F 56.6 °F 29.94 in SW 7.0 mph 14.0 mph 54% 0.00 in
09:49 74.5 °F 56.2 °F 29.94 in SW 7.0 mph 14.0 mph 53% 0.00 in
09:54 75.0 °F 57.7 °F 29.94 in SW 5.0 mph 11.0 mph 55% 0.00 in
09:59 75.7 °F 57.9 °F 29.93 in SW 3.0 mph 8.0 mph 54% 0.00 in
10:04 76.2 °F 57.8 °F 29.93 in SW 7.0 mph 10.0 mph 53% 0.00 in
10:09 76.4 °F 58.0 °F 29.93 in West 11.0 mph 13.0 mph 53% 0.00 in
10:14 76.7 °F 58.3 °F 29.93 in SW 5.0 mph 13.0 mph 53% 0.00 in
10:19 76.8 °F 58.4 °F 29.93 in SW 6.0 mph 12.0 mph 53% 0.00 in
10:24 76.7 °F 57.7 °F 29.94 in SW 6.0 mph 12.0 mph 52% 0.00 in
10:29 76.5 °F 56.5 °F 29.94 in WSW 6.0 mph 12.0 mph 50% 0.00 in
10:34 76.2 °F 56.2 °F 29.93 in WSW 6.0 mph 16.0 mph 50% 0.00 in
10:39 76.2 °F 56.7 °F 29.93 in WSW 7.0 mph 16.0 mph 51% 0.00 in
10:44 77.2 °F 57.1 °F 29.93 in West 3.0 mph 9.0 mph 50% 0.00 in
10:49 77.7 °F 57.0 °F 29.93 in WSW 8.0 mph 15.0 mph 49% 0.00 in
10:54 78.4 °F 57.1 °F 29.93 in SW 6.0 mph 12.0 mph 48% 0.00 in
10:59 77.5 °F 56.3 °F 29.93 in SW 9.0 mph 15.0 mph 48% 0.00 in
11:04 76.9 °F 56.8 °F 29.94 in SW 7.0 mph 15.0 mph 50% 0.00 in
11:09 77.8 °F 57.7 °F 29.93 in West 8.0 mph 15.0 mph 50% 0.00 in
11:14 78.0 °F 57.3 °F 29.93 in WSW 8.0 mph 16.0 mph 49% 0.00 in
11:19 78.3 °F 58.1 °F 29.93 in WSW 8.0 mph 16.0 mph 50% 0.00 in
11:24 79.0 °F 59.3 °F 29.93 in WSW 7.0 mph 13.0 mph 51% 0.00 in
11:29 79.3 °F 59.0 °F 29.93 in WSW 6.0 mph 13.0 mph 50% 0.00 in
11:34 78.6 °F 57.8 °F 29.93 in West 5.0 mph 14.0 mph 49% 0.00 in
11:39 78.4 °F 58.2 °F 29.93 in SSW 7.0 mph 11.0 mph 50% 0.00 in
11:44 78.4 °F 58.8 °F 29.93 in SW 6.0 mph 14.0 mph 51% 0.00 in
11:49 78.1 °F 58.5 °F 29.93 in SW 6.0 mph 14.0 mph 51% 0.00 in
11:54 78.4 °F 58.8 °F 29.94 in SW 6.0 mph 14.0 mph 51% 0.00 in
11:59 78.8 °F 60.2 °F 29.93 in SW 6.0 mph 12.0 mph 53% 0.00 in
12:04 78.7 °F 59.0 °F 29.94 in WNW 7.0 mph 12.0 mph 51% 0.00 in
12:09 78.8 °F 58.6 °F 29.94 in West 5.0 mph 14.0 mph 50% 0.00 in
12:14 78.3 °F 58.7 °F 29.94 in WSW 6.0 mph 14.0 mph 51% 0.00 in
12:19 78.4 °F 59.3 °F 29.93 in WSW 6.0 mph 14.0 mph 52% 0.00 in
12:24 77.7 °F 59.2 °F 29.93 in WSW 6.0 mph 15.0 mph 53% 0.00 in
12:29 77.4 °F 59.5 °F 29.93 in South 7.0 mph 13.0 mph 54% 0.00 in
12:34 77.3 °F 59.4 °F 29.93 in WSW 10.0 mph 16.0 mph 54% 0.00 in
12:39 77.7 °F 61.3 °F 29.93 in WSW 9.0 mph 13.0 mph 57% 0.00 in
12:44 77.4 °F 60.5 °F 29.93 in WSW 7.0 mph 13.0 mph 56% 0.00 in
12:49 77.5 °F 61.1 °F 29.93 in WSW 7.0 mph 14.0 mph 57% 0.00 in
12:54 77.7 °F 61.3 °F 29.92 in WSW 7.0 mph 15.0 mph 57% 0.00 in
12:59 77.8 °F 61.3 °F 29.93 in WSW 6.0 mph 15.0 mph 57% 0.00 in
13:04 78.9 °F 61.4 °F 29.93 in WSW 6.0 mph 14.0 mph 55% 0.00 in
13:09 78.3 °F 61.3 °F 29.93 in WSW 7.0 mph 14.0 mph 56% 0.00 in
13:14 78.4 °F 61.9 °F 29.93 in SW 7.0 mph 14.0 mph 57% 0.00 in
13:19 78.4 °F 62.4 °F 29.93 in WSW 7.0 mph 14.0 mph 58% 0.00 in
13:24 78.7 °F 63.2 °F 29.93 in West 4.0 mph 18.0 mph 59% 0.00 in
13:29 77.8 °F 62.3 °F 29.93 in West 9.0 mph 12.0 mph 59% 0.00 in
13:34 76.8 °F 61.9 °F 29.93 in West 4.0 mph 13.0 mph 60% 0.00 in
13:39 76.8 °F 61.4 °F 29.93 in WSW 12.0 mph 15.0 mph 59% 0.00 in
13:44 76.2 °F 61.8 °F 29.93 in WSW 9.0 mph 13.0 mph 61% 0.00 in
13:49 75.9 °F 61.5 °F 29.93 in WSW 7.0 mph 13.0 mph 61% 0.00 in
13:54 76.3 °F 61.9 °F 29.93 in SW 6.0 mph 12.0 mph 61% 0.00 in
13:59 76.3 °F 62.3 °F 29.93 in WSW 6.0 mph 13.0 mph 62% 0.00 in
14:04 76.6 °F 61.7 °F 29.93 in WSW 6.0 mph 14.0 mph 60% 0.00 in
14:09 76.5 °F 61.6 °F 29.93 in WSW 6.0 mph 14.0 mph 60% 0.00 in
14:14 76.8 °F 62.3 °F 29.93 in West 3.0 mph 12.0 mph 61% 0.00 in
14:19 76.4 °F 61.5 °F 29.93 in SW 3.0 mph 14.0 mph 60% 0.00 in
14:24 76.1 °F 61.7 °F 29.92 in SW 5.0 mph 16.0 mph 61% 0.00 in
14:29 76.3 °F 62.3 °F 29.92 in WSW 4.0 mph 13.0 mph 62% 0.00 in
14:34 77.2 °F 63.2 °F 29.92 in WNW 7.0 mph 8.0 mph 62% 0.00 in
14:39 77.2 °F 62.7 °F 29.92 in SSE 5.0 mph 12.0 mph 61% 0.00 in
14:44 77.6 °F 63.5 °F 29.92 in WSW 5.0 mph 9.0 mph 62% 0.00 in
14:49 77.3 °F 63.3 °F 29.92 in SW 5.0 mph 12.0 mph 62% 0.00 in
14:54 77.0 °F 63.4 °F 29.92 in SW 5.0 mph 13.0 mph 63% 0.00 in
14:59 76.6 °F 63.1 °F 29.92 in WSW 5.0 mph 13.0 mph 63% 0.00 in
15:04 76.3 °F 63.2 °F 29.92 in WSW 5.0 mph 10.0 mph 64% 0.00 in
15:09 75.8 °F 63.2 °F 29.92 in WSW 4.0 mph 10.0 mph 65% 0.00 in
15:14 75.4 °F 63.7 °F 29.92 in SW 6.0 mph 14.0 mph 67% 0.00 in
15:19 75.1 °F 63.4 °F 29.92 in WSW 6.0 mph 14.0 mph 67% 0.00 in
15:24 74.6 °F 63.8 °F 29.92 in WSW 7.0 mph 13.0 mph 69% 0.00 in
15:29 74.6 °F 63.8 °F 29.92 in WSW 8.0 mph 9.0 mph 69% 0.00 in
15:34 74.2 °F 63.8 °F 29.92 in West 4.0 mph 11.0 mph 70% 0.00 in
15:39 73.8 °F 63.8 °F 29.91 in SW 5.0 mph 11.0 mph 71% 0.00 in
15:44 72.8 °F 64.0 °F 29.91 in WSW 2.0 mph 9.0 mph 74% 0.00 in
15:49 72.1 °F 64.5 °F 29.91 in WSW 4.0 mph 9.0 mph 77% 0.00 in
15:54 71.5 °F 64.3 °F 29.91 in West 4.0 mph 8.0 mph 78% 0.00 in
15:59 71.4 °F 64.9 °F 29.91 in WSW 4.0 mph 8.0 mph 80% 0.00 in
16:04 71.4 °F 64.9 °F 29.91 in West 5.0 mph 5.0 mph 80% 0.00 in
16:09 71.7 °F 64.8 °F 29.91 in SW 3.0 mph 9.0 mph 79% 0.00 in
16:14 72.0 °F 64.8 °F 29.91 in WSW 2.0 mph 9.0 mph 78% 0.00 in
16:19 72.4 °F 64.8 °F 29.91 in WSW 3.0 mph 9.0 mph 77% 0.00 in
16:24 72.9 °F 65.3 °F 29.91 in WSW 3.0 mph 7.0 mph 77% 0.00 in
16:29 73.3 °F 64.5 °F 29.90 in WSW 3.0 mph 7.0 mph 74% 0.00 in
16:34 73.5 °F 64.7 °F 29.90 in WSW 3.0 mph 9.0 mph 74% 0.00 in
16:39 73.8 °F 63.8 °F 29.90 in West 3.0 mph 9.0 mph 71% 0.00 in
16:44 73.9 °F 63.5 °F 29.90 in SW 3.0 mph 7.0 mph 70% 0.00 in
16:49 74.0 °F 63.6 °F 29.90 in WSW 3.0 mph 7.0 mph 70% 0.00 in
16:54 74.2 °F 63.8 °F 29.90 in WSW 2.0 mph 6.0 mph 70% 0.00 in
16:59 74.3 °F 63.9 °F 29.89 in WNW 4.0 mph 6.0 mph 70% 0.00 in
17:04 74.3 °F 63.9 °F 29.89 in WNW 5.0 mph 6.0 mph 70% 0.00 in
17:09 74.0 °F 63.6 °F 29.89 in West 4.0 mph 6.0 mph 70% 0.00 in
17:14 73.9 °F 63.5 °F 29.89 in WNW 6.0 mph 6.0 mph 70% 0.00 in
17:19 74.0 °F 64.0 °F 29.89 in West 3.0 mph 6.0 mph 71% 0.00 in
17:24 74.0 °F 64.0 °F 29.89 in West 3.0 mph 6.0 mph 71% 0.00 in
17:29 73.9 °F 63.9 °F 29.89 in West 2.0 mph 5.0 mph 71% 0.00 in
17:34 74.0 °F 63.6 °F 29.89 in West 2.0 mph 5.0 mph 70% 0.00 in
17:39 73.7 °F 64.1 °F 29.89 in SSW 3.0 mph 5.0 mph 72% 0.00 in
17:44 73.1 °F 64.3 °F 29.90 in SW 4.0 mph 13.0 mph 74% 0.00 in
17:49 71.7 °F 64.1 °F 29.90 in SW 5.0 mph 13.0 mph 77% 0.04 in
17:54 70.2 °F 64.1 °F 29.90 in SSW 4.0 mph 8.0 mph 81% 0.05 in
17:59 69.3 °F 63.9 °F 29.89 in SW 4.0 mph 5.0 mph 83% 0.06 in
18:04 69.1 °F 64.4 °F 29.89 in South 3.0 mph 6.0 mph 85% 0.06 in
18:09 69.1 °F 64.7 °F 29.89 in SW 2.0 mph 5.0 mph 86% 0.06 in
18:14 69.0 °F 65.0 °F 29.89 in SSW 3.0 mph 4.0 mph 87% 0.07 in
18:19 68.9 °F 64.9 °F 29.89 in SSW 2.0 mph 4.0 mph 87% 0.07 in
18:24 68.9 °F 65.2 °F 29.89 in SSW 1.0 mph 4.0 mph 88% 0.08 in
18:29 68.8 °F 65.1 °F 29.89 in SSW 1.0 mph 4.0 mph 88% 0.09 in
18:34 68.7 °F 65.0 °F 29.88 in SSW 1.0 mph 4.0 mph 88% 0.10 in
18:39 68.8 °F 65.4 °F 29.88 in Calm     89% 0.11 in
18:44 68.7 °F 65.3 °F 29.88 in Calm     89% 0.11 in
18:49 68.9 °F 65.5 °F 29.88 in Calm     89% 0.08 in
18:54 68.8 °F 65.4 °F 29.89 in Calm   3.0 mph 89% 0.07 in
18:59 68.7 °F 65.3 °F 29.89 in South 1.0 mph 5.0 mph 89% 0.06 in
19:04 68.6 °F 65.2 °F 29.89 in South 1.0 mph 5.0 mph 89% 0.07 in
19:09 68.6 °F 65.2 °F 29.89 in SSE 1.0 mph 4.0 mph 89% 0.07 in
19:14 68.5 °F 65.4 °F 29.89 in SSE 3.0 mph 6.0 mph 90% 0.06 in
19:19 68.5 °F 65.4 °F 29.89 in SSE 1.0 mph 4.0 mph 90% 0.07 in
19:24 68.6 °F 65.5 °F 29.89 in SSE 1.0 mph 4.0 mph 90% 0.06 in
19:29 68.6 °F 65.5 °F 29.88 in Calm   3.0 mph 90% 0.05 in
19:34 68.6 °F 65.5 °F 29.88 in Calm   3.0 mph 90% 0.04 in
19:39 68.7 °F 65.6 °F 29.88 in SSE 1.0 mph 4.0 mph 90% 0.03 in
19:44 68.7 °F 65.6 °F 29.88 in SE 1.0 mph 4.0 mph 90% 0.03 in
19:49 68.8 °F 65.7 °F 29.88 in SSE 1.0 mph 5.0 mph 90% 0.02 in
19:54 68.7 °F 65.6 °F 29.89 in SSE 2.0 mph 5.0 mph 90% 0.02 in
19:59 68.7 °F 65.6 °F 29.88 in SSE 1.0 mph 5.0 mph 90% 0.02 in
20:04 68.8 °F 65.7 °F 29.88 in Calm   4.0 mph 90% 0.01 in
20:09 68.7 °F 66.0 °F 29.88 in Calm     91% 0.01 in
20:14 68.6 °F 65.5 °F 29.88 in Calm   4.0 mph 90% 0.01 in
20:19 68.6 °F 65.9 °F 29.88 in SE 1.0 mph 4.0 mph 91% 0.00 in
20:24 68.6 °F 65.9 °F 29.88 in Calm   1.0 mph 91% 0.00 in
20:29 68.6 °F 65.5 °F 29.88 in SE 2.0 mph 3.0 mph 90% 0.00 in
20:34 68.6 °F 65.9 °F 29.88 in SE 1.0 mph 3.0 mph 91% 0.00 in
20:39 68.6 °F 65.5 °F 29.88 in Calm   1.0 mph 90% 0.00 in
20:44 68.6 °F 65.9 °F 29.88 in Calm   1.0 mph 91% 0.00 in
20:49 68.5 °F 65.8 °F 29.88 in Calm     91% 0.00 in
20:54 68.5 °F 65.8 °F 29.88 in Calm     91% 0.00 in
20:59 68.5 °F 65.4 °F 29.88 in Calm     90% 0.00 in
21:04 68.3 °F 65.3 °F 29.88 in Calm   2.0 mph 90% 0.00 in
21:09 68.3 °F 65.3 °F 29.88 in SSE 1.0 mph 3.0 mph 90% 0.00 in
21:14 68.3 °F 65.3 °F 29.88 in Calm   3.0 mph 90% 0.00 in
21:19 68.4 °F 65.4 °F 29.87 in Calm   3.0 mph 90% 0.00 in
21:24 68.3 °F 65.3 °F 29.88 in SSE 1.0 mph 3.0 mph 90% 0.00 in
21:29 68.4 °F 65.4 °F 29.88 in Calm   2.0 mph 90% 0.00 in
21:34 68.3 °F 65.3 °F 29.88 in Calm   2.0 mph 90% 0.00 in
21:39 68.3 °F 65.3 °F 29.88 in Calm   1.0 mph 90% 0.00 in
21:44 68.2 °F 65.2 °F 29.88 in Calm     90% 0.00 in
21:49 68.0 °F 65.0 °F 29.88 in Calm     90% 0.00 in
21:54 67.8 °F 64.8 °F 29.88 in Calm     90% 0.00 in
21:59 67.9 °F 65.2 °F 29.89 in Calm     91% 0.00 in
22:04 67.9 °F 65.2 °F 29.89 in Calm     91% 0.00 in
22:09 67.8 °F 65.1 °F 29.89 in Calm     91% 0.00 in
22:14 67.8 °F 65.1 °F 29.89 in Calm     91% 0.00 in
22:19 67.8 °F 65.1 °F 29.89 in Calm     91% 0.00 in
22:24 67.7 °F 65.0 °F 29.89 in Calm     91% 0.00 in
22:29 67.7 °F 65.0 °F 29.88 in Calm     91% 0.00 in
22:34 67.6 °F 64.9 °F 29.89 in Calm     91% 0.00 in
22:39 67.6 °F 65.2 °F 29.89 in Calm     92% 0.00 in
22:44 67.6 °F 65.2 °F 29.89 in Calm     92% 0.00 in
22:49 67.6 °F 65.2 °F 29.89 in Calm     92% 0.00 in
22:54 67.6 °F 65.2 °F 29.89 in Calm     92% 0.00 in
22:59 67.5 °F 65.1 °F 29.89 in Calm   3.0 mph 92% 0.00 in
23:04 67.6 °F 65.2 °F 29.89 in SSE 1.0 mph 3.0 mph 92% 0.00 in
23:09 67.4 °F 65.0 °F 29.89 in SSE 1.0 mph 3.0 mph 92% 0.00 in
23:14 67.3 °F 64.9 °F 29.89 in Calm   2.0 mph 92% 0.00 in
23:19 67.4 °F 65.0 °F 29.89 in Calm     92% 0.00 in
23:24 67.2 °F 64.5 °F 29.89 in South 2.0 mph 3.0 mph 91% 0.00 in
23:29 67.3 °F 64.6 °F 29.89 in South 1.0 mph 3.0 mph 91% 0.00 in
23:34 67.3 °F 64.6 °F 29.88 in South 1.0 mph 4.0 mph 91% 0.00 in
23:39 67.3 °F 64.6 °F 29.89 in WSW 1.0 mph 3.0 mph 91% 0.00 in
23:44 67.2 °F 64.5 °F 29.89 in SSW 1.0 mph 4.0 mph 91% 0.00 in
23:49 67.2 °F 64.5 °F 29.89 in SW 2.0 mph 5.0 mph 91% 0.00 in
23:54 67.2 °F 64.5 °F 29.89 in Calm   4.0 mph 91% 0.00 in
23:59 67.3 °F 64.6 °F 29.89 in SSW 1.0 mph 4.0 mph 91% 0.00 in
Buffalo, New York, USA
Compliments of Weather Underground - 2.5 mb